Latest Weather Observations for Geraldton Airport

IDW60801

Issued at 2:32 pm WST Tuesday 28 April 2015 (issued every 30 minutes, with the page automatically refreshed every 10 minutes)

About weather observations | Map of weather stations | Latest weather observations for WA | Other Formats
Station Details ID: 008315 Name: GERALDTON AIRPORT Lat: -28.80 Lon: 114.70 Height: 29.7 m
Data from the previous 72 hours. | See also: Recent months at Geraldton Airport
Date/Time
WST
Temp
°C
App
Temp
°C
Dew
Point
Rel
Hum
%
Delta-T
°C
Wind Press
QNH
hPa
Press
MSL
hPa
Rain
since 9 am
mm
Dir
 
Spd
km/h
Gust
km/h
Spd
kts
Gust
kts
28/02:00pm 23.2 20.1 12.3 50 6.2 WSW 20 28 11 15 1019.8 - 0.0
28/01:30pm 23.7 20.3 12.4 49 6.5 WSW 22 28 12 15 1019.6 - 0.0
28/01:00pm 24.5 21.1 11.1 43 7.5 SW 20 26 11 14 1019.6 - 0.0
28/12:30pm 25.0 21.6 10.7 40 8.0 SW 19 24 10 13 1019.7 - 0.0
28/12:00pm 27.0 23.5 3.7 22 11.6 NW 11 13 6 7 1019.9 1019.9 0.0
28/11:30am 27.0 21.7 3.2 21 11.8 N 20 24 11 13 1020.0 - 0.0
28/11:00am 26.4 20.3 3.0 22 11.5 NNE 24 35 13 19 1019.7 - 0.0
28/10:30am 25.5 17.3 2.5 22 11.1 NE 35 44 19 24 1019.2 - 0.0
28/10:00am 24.9 15.5 2.5 23 10.8 NNE 41 50 22 27 1019.3 - 0.0
28/09:30am 24.3 14.9 2.4 24 10.5 NE 41 50 22 27 1019.2 - 0.0
28/09:00am 23.5 13.3 3.0 26 9.8 NNE 46 57 25 31 1019.3 1019.3 0.0
28/08:00am 20.6 12.5 3.3 32 8.2 NNE 35 44 19 24 1019.4 - 0.0
28/07:30am 20.9 11.7 3.5 31 8.3 NE 41 50 22 27 1019.2 - 0.0
28/07:00am 20.2 10.6 3.2 32 8.0 NE 43 52 23 28 1018.9 - 0.0
28/06:30am 20.5 11.6 3.1 31 8.2 NE 39 52 21 28 1018.8 - 0.0
28/05:30am 20.9 12.4 3.4 31 8.3 NE 37 46 20 25 1018.7 - 0.0
28/05:00am 21.1 12.6 3.3 31 8.5 NE 37 48 20 26 1018.8 - 0.0
28/04:30am 21.3 12.0 3.2 30 8.6 NE 41 52 22 28 1018.7 - 0.0
28/04:00am 21.6 13.5 3.0 29 8.8 NE 35 46 19 25 1018.8 - 0.0
28/03:30am 21.8 14.6 2.9 29 9.0 NE 30 35 16 19 1018.8 - 0.0
28/03:00am 21.6 14.9 3.4 30 8.7 NE 28 37 15 20 1018.8 1018.8 0.0
28/02:30am 21.6 14.9 3.4 30 8.7 NE 28 37 15 20 1019.0 - 0.0
28/02:00am 21.8 15.8 3.5 30 8.8 NE 24 30 13 16 1019.3 - 0.0
28/01:30am 22.4 14.8 2.8 27 9.3 NE 32 39 17 21 1019.4 - 0.0
28/01:00am 22.6 16.2 3.0 27 9.4 NE 26 32 14 17 1019.2 - 0.0
28/12:30am 22.9 15.3 2.9 27 9.6 ENE 32 37 17 20 1019.1 - 0.0
28/12:00am 23.1 15.9 2.8 26 9.7 ENE 30 37 16 20 1019.5 1019.5 0.0
 
Date/Time
WST
Temp
°C
App
Temp
°C
Dew
Point
Rel
Hum
%
Delta-T
°C
Wind Press
QNH
hPa
Press
MSL
hPa
Rain
since 9 am
mm
Dir
 
Spd
km/h
Gust
km/h
Spd
kts
Gust
kts
27/11:30pm 22.8 16.0 3.2 27 9.4 ENE 28 35 15 19 1019.9 - 0.0
27/11:00pm 23.0 17.0 3.5 28 9.4 ENE 24 30 13 16 1020.3 - 0.0
27/10:30pm 22.9 17.3 3.5 28 9.4 ENE 22 28 12 15 1020.3 - 0.0
27/10:00pm 23.1 17.5 3.4 27 9.5 ENE 22 30 12 16 1020.1 - 0.0
27/09:30pm 23.3 18.1 3.6 27 9.6 ENE 20 24 11 13 1020.4 - 0.0
27/09:00pm 19.8 16.9 6.7 42 6.6 NE 11 13 6 7 1020.3 1020.3 0.0
27/08:30pm 21.2 18.4 5.2 35 7.9 E 9 13 5 7 1020.4 - 0.0
27/08:00pm 21.1 19.0 6.5 38 7.4 N 7 9 4 5 1020.0 - 0.0
27/07:30pm 20.6 18.4 7.7 43 6.6 ENE 9 11 5 6 1019.8 - 0.0
27/07:00pm 22.3 20.6 8.2 40 7.4 ESE 7 11 4 6 1019.7 - 0.0
27/06:30pm 23.1 20.7 8.7 39 7.7 SE 11 13 6 7 1019.3 - 0.0
27/06:00pm 24.8 21.8 7.5 33 9.1 SSE 13 15 7 8 1019.0 1019.0 0.0
27/05:30pm 28.3 24.2 4.3 21 12.2 ENE 15 20 8 11 1019.0 - 0.0
27/05:00pm 29.8 25.7 2.4 17 13.6 E 13 17 7 9 1018.8 - 0.0
27/04:30pm 30.6 26.7 3.5 18 13.8 ENE 13 19 7 10 1018.6 - 0.0
27/04:00pm 30.6 26.1 1.9 16 14.2 ENE 15 20 8 11 1018.5 - 0.0
27/03:30pm 30.6 26.6 3.1 17 13.9 NE 13 20 7 11 1018.5 - 0.0
27/03:00pm 30.6 25.9 3.0 17 13.9 E 17 24 9 13 1018.6 1018.6 0.0
27/02:30pm 30.8 27.1 2.5 16 14.2 ENE 11 22 6 12 1018.5 - 0.0
27/02:00pm 30.9 26.0 2.2 16 14.3 ENE 17 26 9 14 1018.7 - 0.0
27/01:30pm 30.8 26.2 1.6 15 14.4 ENE 15 24 8 13 1019.0 - 0.0
27/01:00pm 30.0 25.9 2.1 16 13.8 ESE 13 17 7 9 1019.3 - 0.0
27/12:30pm 29.4 24.9 2.3 17 13.4 NNE 15 22 8 12 1019.7 - 0.0
27/12:00pm 28.3 23.0 2.1 18 12.8 NE 19 26 10 14 1020.1 1020.1 0.0
27/11:30am 27.8 21.9 1.8 18 12.6 NE 22 30 12 16 1020.5 - 0.0
27/11:00am 27.1 20.0 1.6 19 12.3 NE 28 33 15 18 1020.9 - 0.0
27/10:30am 25.7 17.9 1.9 21 11.4 NE 32 39 17 21 1021.2 - 0.0
27/10:00am 24.8 17.0 1.9 22 10.9 NE 32 43 17 23 1021.2 - 0.0
27/09:30am 24.2 16.4 1.8 23 10.6 NE 32 41 17 22 1021.2 - 0.0
27/09:00am 22.6 14.7 2.2 26 9.6 NE 33 41 18 22 1021.3 1021.3 0.0
27/08:30am 21.4 15.3 3.0 29 8.7 ENE 24 32 13 17 1021.4 - 0.0
27/08:00am 20.2 15.6 3.5 33 7.9 NE 17 28 9 15 1021.4 - 0.0
27/07:30am 18.7 14.1 3.6 36 7.1 ENE 17 22 9 12 1021.1 - 0.0
27/07:00am 18.5 11.6 2.7 35 7.3 NE 28 32 15 17 1020.5 - 0.0
27/06:30am 18.5 11.2 2.5 34 7.3 NE 30 37 16 20 1020.3 - 0.0
27/06:00am 17.9 12.2 2.9 36 6.9 NE 22 28 12 15 1020.2 1020.2 0.0
27/05:30am 17.9 13.2 3.2 37 6.8 NE 17 22 9 12 1020.1 - 0.0
27/05:00am 18.2 13.1 3.0 36 7.0 NE 19 26 10 14 1019.9 - 0.0
27/04:30am 18.7 13.0 2.7 34 7.4 NE 22 30 12 16 1019.8 - 0.0
27/04:00am 19.1 12.9 2.4 33 7.7 NE 24 32 13 17 1019.7 - 0.0
27/03:30am 19.2 13.1 2.8 33 7.6 ENE 24 32 13 17 1019.7 - 0.0
27/03:00am 19.1 13.1 3.1 34 7.4 ENE 24 32 13 17 1019.7 1019.7 0.0
27/02:30am 19.4 13.4 3.2 34 7.6 NE 24 32 13 17 1019.8 - 0.0
27/02:00am 19.5 14.3 3.3 34 7.6 NNE 20 26 11 14 1019.9 - 0.0
27/01:30am 19.7 14.1 3.3 33 7.7 ENE 22 32 12 17 1019.9 - 0.0
27/01:00am 20.0 14.4 3.6 34 7.8 NE 22 28 12 15 1020.2 - 0.0
27/12:30am 20.0 13.7 3.5 33 7.8 ENE 26 35 14 19 1020.0 - 0.0
27/12:00am 20.0 14.0 3.6 34 7.8 ENE 24 30 13 16 1020.1 1020.1 0.0
 
Date/Time
WST
Temp
°C
App
Temp
°C
Dew
Point
Rel
Hum
%
Delta-T
°C
Wind Press
QNH
hPa
Press
MSL
hPa
Rain
since 9 am
mm
Dir
 
Spd
km/h
Gust
km/h
Spd
kts
Gust
kts
26/11:30pm 20.5 14.1 3.4 32 8.1 ENE 26 33 14 18 1020.2 - 0.0
26/11:00pm 20.8 14.4 3.3 31 8.3 E 26 33 14 18 1020.2 - 0.0
26/10:30pm 20.8 14.8 3.6 32 8.2 E 24 32 13 17 1020.5 - 0.0
26/10:00pm 21.1 15.2 3.8 32 8.3 E 24 32 13 17 1020.3 - 0.0
26/09:30pm 20.7 16.2 4.3 34 7.9 E 17 20 9 11 1020.4 - 0.0
26/09:00pm 19.7 16.7 6.0 40 6.8 E 11 19 6 10 1020.1 1020.1 0.0
26/08:30pm 18.6 17.8 11.1 61 4.1 ESE 6 9 3 5 1020.0 - 0.0
26/08:00pm 18.7 17.2 13.0 69 3.2 SSE 13 15 7 8 1020.0 - 0.0
26/07:30pm 19.1 18.3 13.9 72 3.0 SE 11 13 6 7 1019.7 - 0.0
26/07:00pm 20.0 19.2 14.1 69 3.4 SE 11 15 6 8 1019.5 - 0.0
26/06:30pm 21.3 19.8 14.1 63 4.2 SSE 15 19 8 10 1019.3 - 0.0
26/06:00pm 22.4 20.2 13.4 56 5.2 S 17 20 9 11 1019.2 1019.2 0.0
26/05:30pm 24.1 21.5 11.9 46 6.9 S 17 22 9 12 1018.9 - 0.0
26/05:00pm 26.0 21.7 7.8 31 9.7 S 20 26 11 14 1018.6 - 0.0
26/04:30pm 26.7 21.8 7.0 28 10.4 S 22 26 12 14 1018.4 - 0.0
26/04:00pm 28.0 23.8 7.3 27 11.1 S 19 26 10 14 1018.2 - 0.0
26/03:30pm 29.0 25.5 3.3 19 12.9 E 11 22 6 12 1018.1 - 0.0
26/03:00pm 29.0 24.8 1.8 17 13.3 ESE 13 20 7 11 1018.0 1018.0 0.0
26/02:30pm 28.3 24.2 2.1 18 12.8 E 13 22 7 12 1018.2 - 0.0
26/02:00pm 28.5 25.8 3.8 20 12.5 ENE 7 17 4 9 1018.4 - 0.0
26/01:30pm 28.1 24.5 2.8 19 12.5 E 11 24 6 13 1018.6 - 0.0
26/01:00pm 27.8 23.8 3.0 20 12.3 E 13 20 7 11 1019.0 - 0.0
26/12:30pm 27.8 22.6 2.7 20 12.4 ENE 19 24 10 13 1019.4 - 0.0
26/12:00pm 27.4 21.7 2.8 20 12.1 ENE 22 32 12 17 1019.8 1019.8 0.0
26/11:30am 26.6 19.6 2.2 20 11.8 ENE 28 33 15 18 1019.9 - 0.0
26/11:00am 25.8 18.4 1.7 21 11.5 ENE 30 35 16 19 1020.2 - 0.0
26/10:30am 24.8 17.0 1.9 22 10.9 ENE 32 39 17 21 1020.6 - 0.0
26/10:00am 23.7 15.4 1.9 24 10.3 NE 35 44 19 24 1020.7 - 0.0
26/09:30am 22.7 14.4 2.0 25 9.7 NE 35 43 19 23 1021.0 - 0.0
26/09:00am 21.4 13.1 2.3 28 8.9 NE 35 43 19 23 1021.0 1021.0 0.0
26/08:30am 19.9 12.0 2.3 31 8.1 ENE 33 43 18 23 1020.8 - 0.0
26/08:00am 18.4 11.1 2.5 34 7.3 NE 30 37 16 20 1020.6 - 0.0
26/07:30am 17.3 10.0 2.3 36 6.8 ENE 30 37 16 20 1020.1 - 0.0
26/07:00am 16.4 9.9 2.4 39 6.3 ENE 26 35 14 19 1019.9 - 0.0
26/06:30am 17.0 10.7 1.8 36 6.8 ENE 24 32 13 17 1019.7 - 0.0
26/06:00am 16.9 11.0 1.9 36 6.7 NE 22 28 12 15 1019.5 1019.5 0.0
26/05:30am 16.9 10.6 1.6 35 6.8 NE 24 32 13 17 1019.5 - 0.0
26/05:00am 17.4 10.3 1.1 33 7.2 NE 28 35 15 19 1019.3 - 0.0
26/04:30am 17.1 10.8 1.4 34 7.0 NE 24 32 13 17 1019.2 - 0.0
26/04:00am 17.4 10.6 1.0 33 7.2 NE 26 33 14 18 1019.1 - 0.0
26/03:30am 17.6 10.8 0.7 32 7.4 NE 26 33 14 18 1019.1 - 0.0
26/03:00am 17.8 10.2 0.8 32 7.5 ENE 30 41 16 22 1019.2 1019.2 0.0
26/02:30am 18.0 10.8 0.5 30 7.7 ENE 28 35 15 19 1019.4 - 0.0
26/02:00am 18.5 12.0 0.5 29 7.9 NE 24 30 13 16 1019.7 - 0.0
26/01:30am 18.8 12.4 0.7 29 8.0 ENE 24 33 13 18 1019.7 - 0.0
26/01:00am 18.9 12.0 0.2 28 8.2 ENE 26 32 14 17 1019.6 - 0.0
26/12:30am 18.8 12.7 0.1 28 8.2 ENE 22 26 12 14 1019.5 - 0.0
26/12:00am 18.2 12.5 0.3 30 7.8 E 20 28 11 15 1019.5 1019.5 0.0
 
Date/Time
WST
Temp
°C
App
Temp
°C
Dew
Point
Rel
Hum
%
Delta-T
°C
Wind Press
QNH
hPa
Press
MSL
hPa
Rain
since 9 am
mm
Dir
 
Spd
km/h
Gust
km/h
Spd
kts
Gust
kts
25/11:30pm 18.2 12.7 0.7 31 7.7 E 19 24 10 13 1019.7 - 0.0
25/11:00pm 18.6 13.5 0.5 29 8.0 E 17 22 9 12 1019.9 - 0.0
25/10:30pm 18.6 13.9 1.1 31 7.8 E 15 20 8 11 1020.0 - 0.0
25/10:00pm 18.2 14.4 1.8 33 7.4 E 11 15 6 8 1020.0 - 0.0
25/09:30pm 17.9 13.7 1.9 34 7.2 E 13 15 7 8 1020.1 - 0.0
25/09:00pm 18.2 13.7 2.4 34 7.2 ESE 15 19 8 10 1019.9 1019.9 0.0
25/08:30pm 18.7 14.0 2.9 35 7.3 ESE 17 20 9 11 1019.7 - 0.0
25/08:00pm 19.9 14.8 3.1 33 7.9 ESE 19 22 10 12 1019.5 - 0.0
25/07:30pm 19.0 14.5 4.1 37 7.1 ESE 17 19 9 10 1019.4 - 0.0
25/07:00pm 20.1 15.5 3.7 34 7.8 E 17 19 9 10 1019.0 - 0.0
25/06:30pm 21.3 16.7 3.5 31 8.5 E 17 20 9 11 1018.6 - 0.0
25/06:00pm 23.1 17.8 2.9 26 9.7 E 20 22 11 12 1018.3 1018.3 0.0
25/05:30pm 25.1 18.9 2.1 22 11.0 E 24 30 13 16 1018.0 - 0.0
25/05:00pm 26.1 19.1 2.0 21 11.6 E 28 33 15 18 1017.8 - 0.0
25/04:30pm 27.1 21.0 2.7 20 12.0 E 24 32 13 17 1017.7 - 0.0
25/04:00pm 27.1 20.1 1.9 19 12.2 ESE 28 37 15 20 1017.6 - 0.0
25/03:30pm 27.5 21.8 2.8 20 12.2 ENE 22 32 12 17 1017.5 - 0.0
25/03:00pm 27.6 21.8 2.5 20 12.3 ESE 22 30 12 16 1017.6 1017.5 0.0

Other Formats:

Comma delimited format used in spreadsheet applications
http://www.bom.gov.au/fwo/IDW60801/IDW60801.94403.axf

JavaScript Object Notation format (JSON) in row-major order
http://www.bom.gov.au/fwo/IDW60801/IDW60801.94403.json